Time;durP1;ratioP1;P1;durP2;ratioP2;P2;SDS_P1;SDS_P2;PMS_P1;PMS_P2;Temp;Humidity;BMP_temperature;BMP_pressure;BME280_temperature;BME280_humidity;BME280_pressure;Samples;Min_cycle;Max_cycle;Signal;HPM_P1;HPM_P2
2021/06/06 00:01:40;;;;;;;10.82;3.40;;;17.10;99.90;;;;;;1972924;73;21051;-73
2021/06/06 00:04:06;;;;;;;7.75;3.20;;;16.90;99.90;;;;;;1973147;73;21452;-73
2021/06/06 00:06:32;;;;;;;8.25;3.83;;;16.80;99.90;;;;;;1973113;73;21535;-73
2021/06/06 00:08:58;;;;;;;4.87;3.37;;;16.90;99.90;;;;;;1973024;73;21552;-73
2021/06/06 00:11:25;;;;;;;7.60;3.52;;;16.90;99.90;;;;;;1973204;73;21153;-73
2021/06/06 00:13:51;;;;;;;7.53;3.92;;;17.00;99.90;;;;;;1973309;73;21077;-73
2021/06/06 00:16:17;;;;;;;4.47;3.50;;;16.90;99.90;;;;;;1973252;73;21088;-73
2021/06/06 00:18:43;;;;;;;8.05;3.62;;;16.90;99.90;;;;;;1973264;73;21153;-74
2021/06/06 00:21:09;;;;;;;6.67;3.22;;;17.00;99.90;;;;;;1974939;71;21120;-74
2021/06/06 00:23:36;;;;;;;5.12;3.55;;;17.00;99.90;;;;;;1996028;71;21495;-74
2021/06/06 00:26:02;;;;;;;9.08;4.00;;;17.00;99.90;;;;;;1970917;70;21432;-73
2021/06/06 00:28:30;;;;;;;4.75;3.17;;;17.00;99.90;;;;;;1973327;73;21504;-73
2021/06/06 00:30:56;;;;;;;7.80;3.70;;;17.00;99.90;;;;;;1973104;71;21107;-73
2021/06/06 00:33:22;;;;;;;5.95;3.25;;;16.90;99.90;;;;;;1973229;73;21103;-73
2021/06/06 00:35:48;;;;;;;5.67;3.08;;;16.80;99.90;;;;;;1973185;73;21129;-73
2021/06/06 00:38:14;;;;;;;6.00;3.25;;;16.90;99.90;;;;;;1973442;73;21067;-73
2021/06/06 00:40:41;;;;;;;10.78;3.35;;;16.80;99.90;;;;;;1973241;73;21084;-73
2021/06/06 00:43:07;;;;;;;4.67;2.92;;;16.90;99.90;;;;;;1973213;73;21096;-73
2021/06/06 00:45:33;;;;;;;6.37;3.33;;;16.90;99.90;;;;;;1973209;73;21032;-73
2021/06/06 00:47:59;;;;;;;5.80;3.22;;;16.90;99.90;;;;;;1973225;73;21095;-73
2021/06/06 00:50:25;;;;;;;4.83;2.92;;;16.80;99.90;;;;;;1973197;73;21121;-73
2021/06/06 00:52:51;;;;;;;6.03;3.40;;;16.90;99.90;;;;;;1973209;73;21067;-73
2021/06/06 00:55:17;;;;;;;6.25;2.92;;;16.90;99.90;;;;;;1973189;73;21032;-73
2021/06/06 00:57:43;;;;;;;7.42;3.80;;;16.90;99.90;;;;;;1973180;73;21149;-74
2021/06/06 01:00:10;;;;;;;7.28;3.50;;;16.80;99.90;;;;;;1973195;73;21063;-72
2021/06/06 01:02:36;;;;;;;5.58;3.45;;;16.70;99.90;;;;;;1973199;73;21121;-73
2021/06/06 01:05:02;;;;;;;4.60;3.00;;;16.70;99.90;;;;;;1973198;73;21032;-74
2021/06/06 01:07:28;;;;;;;11.00;3.22;;;16.70;99.90;;;;;;1973304;73;21100;-73
2021/06/06 01:09:54;;;;;;;5.92;3.58;;;16.60;99.90;;;;;;1973318;73;21088;-73
2021/06/06 01:12:20;;;;;;;8.53;2.87;;;16.60;99.90;;;;;;1973332;73;21193;-72
2021/06/06 01:14:46;;;;;;;4.53;2.98;;;16.70;99.90;;;;;;1973319;73;21092;-72
2021/06/06 01:17:12;;;;;;;6.30;3.50;;;16.80;99.90;;;;;;1973298;73;21169;-72
2021/06/06 01:19:39;;;;;;;12.30;3.00;;;16.70;99.90;;;;;;1973245;73;21084;-73
2021/06/06 01:22:05;;;;;;;7.70;3.30;;;16.80;99.90;;;;;;1973425;73;21529;-72
2021/06/06 01:24:31;;;;;;;6.55;3.17;;;16.70;99.90;;;;;;1973225;73;21530;-72
2021/06/06 01:26:57;;;;;;;4.22;2.90;;;16.70;99.90;;;;;;1973199;73;21494;-73
2021/06/06 01:29:23;;;;;;;3.87;2.62;;;16.70;99.90;;;;;;1973202;73;21617;-72
2021/06/06 01:31:49;;;;;;;6.00;3.12;;;16.70;99.90;;;;;;1973195;73;21545;-72
2021/06/06 01:34:15;;;;;;;4.53;2.80;;;16.70;99.90;;;;;;1973223;73;21028;-72
2021/06/06 01:36:43;;;;;;;4.25;3.00;;;16.70;99.90;;;;;;1973139;73;21075;-73
2021/06/06 01:39:09;;;;;;;6.40;3.05;;;16.70;99.90;;;;;;1973203;73;21136;-72
2021/06/06 01:41:36;;;;;;;11.95;3.22;;;16.70;99.90;;;;;;1973195;73;21161;-72
2021/06/06 01:44:02;;;;;;;4.47;3.02;;;16.70;99.90;;;;;;1973204;73;21153;-72
2021/06/06 01:46:28;;;;;;;4.03;2.83;;;16.70;99.90;;;;;;1973187;73;21166;-72
2021/06/06 01:48:54;;;;;;;6.10;3.60;;;16.70;99.90;;;;;;1973167;73;21100;-73
2021/06/06 01:51:20;;;;;;;3.87;2.67;;;16.60;99.90;;;;;;1973200;73;21114;-73
2021/06/06 01:53:46;;;;;;;6.03;2.95;;;16.60;99.90;;;;;;1973181;73;21067;-72
2021/06/06 01:56:13;;;;;;;3.55;2.37;;;16.40;99.90;;;;;;1973148;73;21072;-73
2021/06/06 01:58:39;;;;;;;4.10;2.70;;;16.40;99.90;;;;;;1973294;73;21076;-73
2021/06/06 02:01:05;;;;;;;5.05;2.35;;;16.50;99.90;;;;;;1973097;73;21071;-72
2021/06/06 02:03:31;;;;;;;4.78;2.60;;;16.50;99.90;;;;;;1973295;73;21142;-72
2021/06/06 02:05:57;;;;;;;3.72;2.45;;;16.50;99.90;;;;;;1973198;73;21039;-72
2021/06/06 02:08:23;;;;;;;2.77;1.95;;;16.40;99.90;;;;;;1973281;73;21504;-72
2021/06/06 02:10:49;;;;;;;3.35;2.60;;;16.50;99.90;;;;;;1973261;73;21488;-73
2021/06/06 02:13:15;;;;;;;5.03;2.67;;;16.60;99.90;;;;;;1973880;73;21055;-71
2021/06/06 02:15:42;;;;;;;3.05;2.15;;;16.60;99.90;;;;;;1977026;73;21048;-71
2021/06/06 02:18:08;;;;;;;3.52;2.52;;;16.60;99.90;;;;;;1977140;73;21082;-72
2021/06/06 02:20:34;;;;;;;4.90;2.65;;;16.60;99.90;;;;;;1974282;73;21035;-72
2021/06/06 02:23:00;;;;;;;4.05;2.55;;;16.60;99.90;;;;;;1973228;73;21106;-73
2021/06/06 02:25:26;;;;;;;4.83;2.65;;;16.70;99.90;;;;;;1973184;73;21051;-73
2021/06/06 02:27:53;;;;;;;4.25;2.47;;;16.70;99.90;;;;;;1973130;73;21125;-73
2021/06/06 02:30:19;;;;;;;6.15;2.58;;;16.50;99.90;;;;;;1973208;73;21136;-73
2021/06/06 02:32:45;;;;;;;4.45;2.35;;;16.60;99.90;;;;;;1973198;73;21090;-73
2021/06/06 02:35:11;;;;;;;5.15;2.47;;;16.70;99.90;;;;;;1973135;73;21049;-73
2021/06/06 02:37:40;;;;;;;5.40;2.58;;;16.60;99.90;;;;;;1973146;73;21067;-73
2021/06/06 02:40:05;;;;;;;2.72;2.20;;;16.60;99.90;;;;;;1973189;71;21076;-73
2021/06/06 02:42:31;;;;;;;3.02;2.17;;;16.60;99.90;;;;;;1973371;73;21154;-72
2021/06/06 02:44:57;;;;;;;3.85;2.37;;;16.60;99.90;;;;;;1973392;73;21076;-73
2021/06/06 02:47:23;;;;;;;2.55;2.27;;;16.60;99.90;;;;;;1972935;73;21075;-73
2021/06/06 02:49:50;;;;;;;5.67;2.55;;;16.60;99.90;;;;;;1973246;73;21157;-73
2021/06/06 02:52:16;;;;;;;3.98;2.80;;;16.60;99.90;;;;;;1973129;73;21071;-73
2021/06/06 02:54:42;;;;;;;4.12;2.80;;;16.50;99.90;;;;;;1973166;73;21142;-73
2021/06/06 02:57:08;;;;;;;4.65;2.70;;;16.40;99.90;;;;;;1973129;73;21063;-73
2021/06/06 02:59:34;;;;;;;5.08;2.33;;;16.50;99.90;;;;;;1973062;72;21075;-73
2021/06/06 03:02:00;;;;;;;4.30;2.58;;;16.40;99.90;;;;;;1973117;73;21059;-73
2021/06/06 03:04:26;;;;;;;4.45;2.50;;;16.30;99.90;;;;;;1973110;73;21125;-73
2021/06/06 03:06:52;;;;;;;3.80;2.35;;;16.30;99.90;;;;;;1970734;70;21188;-73
2021/06/06 03:09:18;;;;;;;3.95;2.47;;;16.50;99.90;;;;;;1973288;73;21471;-73
2021/06/06 03:11:45;;;;;;;5.67;3.15;;;16.30;99.90;;;;;;1979466;71;21484;-73
2021/06/06 03:14:11;;;;;;;5.42;3.12;;;16.40;99.90;;;;;;1973038;73;21534;-73
2021/06/06 03:16:37;;;;;;;4.30;2.67;;;16.40;99.90;;;;;;1973212;73;21600;-73
2021/06/06 03:19:03;;;;;;;5.05;2.90;;;16.40;99.90;;;;;;1973003;73;21487;-73
2021/06/06 03:21:29;;;;;;;4.97;3.02;;;16.40;99.90;;;;;;1973228;73;21496;-73
2021/06/06 03:23:55;;;;;;;7.28;3.10;;;16.30;99.90;;;;;;1973050;73;21124;-73
2021/06/06 03:26:23;;;;;;;4.05;3.00;;;16.40;99.90;;;;;;1973317;73;21189;-74
2021/06/06 03:28:49;;;;;;;6.17;3.10;;;16.30;99.90;;;;;;1973412;73;21093;-74
2021/06/06 03:31:15;;;;;;;4.92;2.83;;;16.20;99.90;;;;;;1973280;73;21088;-72
2021/06/06 03:33:41;;;;;;;5.15;3.30;;;16.30;99.90;;;;;;1973200;73;21094;-73
2021/06/06 03:36:07;;;;;;;4.35;2.77;;;16.30;99.90;;;;;;1973134;73;21024;-72
2021/06/06 03:38:33;;;;;;;7.72;3.37;;;16.20;99.90;;;;;;1973143;73;21055;-73
2021/06/06 03:41:00;;;;;;;6.42;2.90;;;16.30;99.90;;;;;;1973157;73;21067;-73
2021/06/06 03:43:26;;;;;;;13.65;3.20;;;16.30;99.90;;;;;;1973196;73;21124;-72
2021/06/06 03:45:52;;;;;;;7.05;3.72;;;16.20;99.90;;;;;;1973153;73;21109;-72
2021/06/06 03:48:18;;;;;;;5.83;3.35;;;16.20;99.90;;;;;;1973136;73;21055;-73
2021/06/06 03:50:45;;;;;;;7.85;3.58;;;16.10;99.90;;;;;;1973147;73;21117;-72
2021/06/06 03:53:12;;;;;;;10.68;3.20;;;16.10;99.90;;;;;;1973146;73;21082;-72
2021/06/06 03:55:38;;;;;;;6.25;3.33;;;16.10;99.90;;;;;;1973097;73;21055;-73
2021/06/06 03:58:04;;;;;;;8.20;3.22;;;16.10;99.90;;;;;;1973239;73;21474;-72
2021/06/06 04:00:30;;;;;;;5.33;3.00;;;16.10;99.90;;;;;;1973109;73;21536;-73
2021/06/06 04:02:56;;;;;;;5.50;3.02;;;16.10;99.90;;;;;;1973122;73;21427;-73
2021/06/06 04:05:22;;;;;;;4.47;2.58;;;16.10;99.90;;;;;;1973134;73;21463;-72
2021/06/06 04:07:48;;;;;;;6.62;3.67;;;16.20;99.90;;;;;;1973271;73;21595;-73
2021/06/06 04:10:15;;;;;;;6.17;3.20;;;16.10;99.90;;;;;;1973002;73;21471;-72
2021/06/06 04:12:41;;;;;;;6.10;2.45;;;16.10;99.90;;;;;;1973190;73;21504;-71
2021/06/06 04:15:07;;;;;;;3.52;2.77;;;16.10;99.90;;;;;;1973227;73;21068;-73
2021/06/06 04:17:33;;;;;;;5.15;2.50;;;16.10;99.90;;;;;;1973032;73;21051;-72
2021/06/06 04:19:59;;;;;;;4.47;2.67;;;16.10;99.90;;;;;;1973340;73;21080;-72
2021/06/06 04:22:25;;;;;;;5.60;2.80;;;16.10;99.90;;;;;;1973044;73;21048;-73
2021/06/06 04:24:51;;;;;;;5.90;3.00;;;16.10;99.90;;;;;;1973136;73;21152;-72
2021/06/06 04:27:17;;;;;;;6.95;3.30;;;16.10;99.90;;;;;;1972975;73;21130;-73
2021/06/06 04:29:44;;;;;;;9.05;3.33;;;16.10;99.90;;;;;;1973140;73;21059;-72
2021/06/06 04:32:14;;;;;;;10.80;3.10;;;16.00;99.90;;;;;;1973104;73;21063;-73
2021/06/06 04:34:37;;;;;;;7.22;3.50;;;16.00;99.90;;;;;;1972862;71;21121;-73
2021/06/06 04:37:04;;;;;;;4.37;3.00;;;16.10;99.90;;;;;;1973180;73;21057;-73
2021/06/06 04:39:30;;;;;;;7.28;2.70;;;16.10;99.90;;;;;;1973087;73;21132;-73
2021/06/06 04:41:56;;;;;;;6.92;3.20;;;16.10;99.90;;;;;;1973053;73;21055;-73
2021/06/06 04:44:22;;;;;;;5.60;3.08;;;16.00;99.90;;;;;;1973193;73;21080;-74
2021/06/06 04:46:48;;;;;;;6.37;3.10;;;16.00;99.90;;;;;;1973171;73;21059;-73
2021/06/06 04:49:14;;;;;;;9.03;2.92;;;15.90;99.90;;;;;;1973204;73;21088;-73
2021/06/06 04:51:40;;;;;;;4.97;2.95;;;16.00;99.90;;;;;;1973147;73;21067;-73
2021/06/06 04:54:07;;;;;;;8.45;3.60;;;15.90;99.90;;;;;;1973085;73;21096;-73
2021/06/06 04:56:33;;;;;;;9.23;2.90;;;15.90;99.90;;;;;;1973034;73;21067;-73
2021/06/06 04:58:59;;;;;;;7.22;2.98;;;15.90;99.90;;;;;;1973072;73;21028;-73
2021/06/06 05:01:25;;;;;;;6.80;3.08;;;16.00;99.90;;;;;;1973167;73;21028;-74
2021/06/06 05:03:51;;;;;;;4.87;2.52;;;16.00;99.90;;;;;;1973171;73;21094;-74
2021/06/06 05:06:17;;;;;;;6.47;2.75;;;15.90;99.90;;;;;;1973593;73;21055;-79
2021/06/06 05:08:43;;;;;;;6.20;2.75;;;15.90;99.90;;;;;;1973572;72;21079;-79
2021/06/06 05:11:09;;;;;;;5.85;2.70;;;15.90;99.90;;;;;;1974114;73;21048;-79
2021/06/06 05:13:36;;;;;;;3.27;2.50;;;16.00;99.90;;;;;;1973606;73;21113;-79
2021/06/06 05:16:02;;;;;;;6.67;2.65;;;16.00;99.90;;;;;;1973244;73;21142;-79
2021/06/06 05:18:28;;;;;;;7.17;2.70;;;16.00;99.90;;;;;;1973075;73;21132;-78
2021/06/06 05:20:54;;;;;;;7.62;2.87;;;16.10;99.90;;;;;;1973188;73;21000;-77
2021/06/06 05:23:20;;;;;;;5.40;2.62;;;16.20;99.90;;;;;;1986062;71;21036;-78
2021/06/06 05:25:46;;;;;;;4.33;2.60;;;16.10;99.90;;;;;;1980189;71;21109;-78
2021/06/06 05:28:12;;;;;;;6.12;2.62;;;16.10;99.90;;;;;;1985254;71;21056;-78
2021/06/06 05:30:39;;;;;;;5.03;2.40;;;16.00;99.90;;;;;;1992149;71;21062;-78
2021/06/06 05:33:05;;;;;;;10.60;2.60;;;15.80;99.90;;;;;;1979084;71;21016;-77
2021/06/06 05:35:31;;;;;;;3.87;2.60;;;15.90;99.90;;;;;;1973235;73;21080;-77
2021/06/06 05:37:57;;;;;;;4.95;2.40;;;15.90;99.90;;;;;;1973267;73;21063;-77
2021/06/06 05:40:23;;;;;;;7.10;2.95;;;16.00;99.90;;;;;;1973168;73;21091;-77
2021/06/06 05:42:49;;;;;;;6.05;2.37;;;15.90;99.90;;;;;;1973337;73;21149;-77
2021/06/06 05:45:15;;;;;;;5.75;2.47;;;16.00;99.90;;;;;;1973308;73;21085;-78
2021/06/06 05:47:41;;;;;;;7.95;2.58;;;16.00;99.90;;;;;;1973073;73;21160;-78
2021/06/06 05:50:08;;;;;;;5.12;2.67;;;16.10;99.90;;;;;;1973416;73;21581;-78
2021/06/06 05:52:34;;;;;;;6.45;3.15;;;16.00;99.90;;;;;;1973315;73;21478;-78
2021/06/06 05:55:00;;;;;;;6.87;3.00;;;15.80;99.90;;;;;;1973224;73;21512;-79
2021/06/06 05:57:26;;;;;;;7.92;3.20;;;15.90;99.90;;;;;;1973388;73;21483;-79
2021/06/06 05:59:52;;;;;;;5.75;3.05;;;16.00;99.90;;;;;;1974251;73;21188;-80
2021/06/06 06:02:18;;;;;;;8.35;3.00;;;16.00;99.90;;;;;;1977314;73;21122;-77
2021/06/06 06:04:44;;;;;;;7.60;3.20;;;15.90;99.90;;;;;;1976921;73;21132;-78
2021/06/06 06:07:10;;;;;;;4.33;2.87;;;16.00;99.90;;;;;;1974555;73;21064;-79
2021/06/06 06:09:37;;;;;;;7.80;3.33;;;16.00;99.90;;;;;;1973262;73;21161;-79
2021/06/06 06:12:03;;;;;;;5.92;3.30;;;16.00;99.90;;;;;;1973230;73;21059;-78
2021/06/06 06:14:29;;;;;;;6.67;3.58;;;16.10;99.90;;;;;;1973228;73;21067;-79
2021/06/06 06:16:55;;;;;;;8.48;3.90;;;16.10;99.90;;;;;;1973165;73;21157;-79
2021/06/06 06:19:21;;;;;;;11.95;3.67;;;16.10;99.90;;;;;;1973335;73;21056;-79
2021/06/06 06:21:47;;;;;;;5.87;3.00;;;16.00;99.90;;;;;;1973384;73;21138;-79
2021/06/06 06:24:13;;;;;;;8.20;4.12;;;16.00;99.90;;;;;;1973219;73;21032;-79
2021/06/06 06:26:39;;;;;;;6.50;3.17;;;16.10;99.90;;;;;;1973199;73;21059;-79
2021/06/06 06:29:06;;;;;;;5.40;3.30;;;16.10;99.90;;;;;;1973305;73;21161;-79
2021/06/06 06:31:32;;;;;;;8.85;3.87;;;15.90;99.90;;;;;;1973211;73;21071;-79
2021/06/06 06:33:59;;;;;;;6.65;3.27;;;15.90;99.90;;;;;;1973212;73;21008;-81
2021/06/06 06:36:26;;;;;;;6.00;3.35;;;15.90;99.90;;;;;;1973057;73;21122;-83
2021/06/06 06:38:52;;;;;;;6.50;3.22;;;15.80;99.90;;;;;;1973338;73;21086;-74
2021/06/06 06:41:18;;;;;;;4.05;2.95;;;15.90;99.90;;;;;;1973097;73;21094;-74
2021/06/06 06:43:44;;;;;;;8.25;3.27;;;15.90;99.90;;;;;;1973207;73;21059;-79
2021/06/06 06:46:10;;;;;;;5.42;3.12;;;16.00;99.90;;;;;;1973306;73;21232;-82
2021/06/06 06:48:36;;;;;;;6.53;3.40;;;16.00;99.90;;;;;;1973086;73;21121;-82
2021/06/06 06:51:02;;;;;;;18.80;3.35;;;16.10;99.90;;;;;;1973275;73;21158;-79
2021/06/06 06:53:29;;;;;;;6.83;2.95;;;16.00;99.90;;;;;;1973188;73;21032;-80
2021/06/06 06:55:55;;;;;;;4.78;3.37;;;16.00;99.90;;;;;;1975377;73;21077;-80
2021/06/06 06:58:21;;;;;;;6.28;2.83;;;16.00;99.90;;;;;;1973508;73;21112;-81
2021/06/06 07:00:47;;;;;;;7.75;3.02;;;16.10;99.90;;;;;;1973081;73;21071;-82
2021/06/06 07:03:13;;;;;;;6.62;3.47;;;15.90;99.90;;;;;;1973312;73;21559;-80
2021/06/06 07:05:39;;;;;;;6.50;3.02;;;16.00;99.90;;;;;;1973376;73;21452;-81
2021/06/06 07:08:05;;;;;;;6.15;3.00;;;16.10;99.90;;;;;;1973383;73;21545;-78
2021/06/06 07:10:31;;;;;;;5.00;2.90;;;16.20;99.90;;;;;;1973372;73;21488;-80
2021/06/06 07:12:57;;;;;;;7.42;3.42;;;16.20;99.90;;;;;;1973227;73;21508;-80
2021/06/06 07:15:24;;;;;;;10.63;3.15;;;16.20;99.90;;;;;;1973216;73;21483;-80
2021/06/06 07:17:50;;;;;;;8.48;3.15;;;16.30;99.90;;;;;;1973154;73;21499;-81
2021/06/06 07:20:20;;;;;;;6.53;2.83;;;16.10;99.90;;;;;;1973178;73;21059;-81
2021/06/06 07:22:44;;;;;;;5.92;3.42;;;16.20;99.90;;;;;;1972936;71;21076;-80
2021/06/06 07:25:10;;;;;;;6.62;2.95;;;16.20;99.90;;;;;;1973593;73;21095;-80
2021/06/06 07:27:43;;;;;;;8.05;3.15;;;16.20;99.90;;;;;;1973273;73;21063;-81
2021/06/06 07:30:06;;;;;;;;;;;16.10;99.90;;;;;;1976468;71;21068;-80
2021/06/06 07:32:32;;;;;;;4.72;2.77;;;16.10;99.90;;;;;;1973254;72;20178;-81
2021/06/06 07:35:00;;;;;;;6.03;3.08;;;16.00;99.90;;;;;;1973249;73;21080;-81
2021/06/06 07:37:26;;;;;;;6.00;3.40;;;16.10;99.90;;;;;;1973139;73;21063;-80
2021/06/06 07:39:52;;;;;;;6.28;3.50;;;16.10;99.90;;;;;;1973163;73;21087;-80
2021/06/06 07:42:18;;;;;;;10.45;3.22;;;16.10;99.90;;;;;;1973346;73;21075;-77
2021/06/06 07:44:44;;;;;;;5.60;3.15;;;16.10;99.90;;;;;;1973143;73;21055;-79
2021/06/06 07:47:11;;;;;;;5.33;3.05;;;16.10;99.90;;;;;;1973151;73;21083;-81
2021/06/06 07:49:37;;;;;;;6.12;2.83;;;16.10;99.90;;;;;;1973132;73;21059;-79
2021/06/06 07:52:03;;;;;;;7.62;3.45;;;16.10;99.90;;;;;;1973357;73;21067;-77
2021/06/06 07:54:29;;;;;;;6.37;3.52;;;16.10;99.90;;;;;;1973233;73;21095;-76
2021/06/06 07:56:57;;;;;;;12.58;3.58;;;16.10;99.90;;;;;;1972974;73;21063;-78
2021/06/06 07:59:23;;;;;;;7.87;3.27;;;16.10;99.90;;;;;;1973233;71;21555;-77
2021/06/06 08:01:49;;;;;;;6.33;2.80;;;16.10;99.90;;;;;;1973040;73;21436;-76
2021/06/06 08:04:15;;;;;;;5.78;3.37;;;16.20;99.90;;;;;;1978897;71;21516;-80
2021/06/06 08:06:41;;;;;;;9.88;3.30;;;16.20;99.90;;;;;;1973239;73;21519;-76
2021/06/06 08:09:07;;;;;;;7.70;3.02;;;16.10;99.90;;;;;;1973303;70;21108;-83
2021/06/06 08:11:33;;;;;;;10.45;3.50;;;16.20;99.90;;;;;;1974152;71;21123;-84
2021/06/06 08:14:00;;;;;;;11.60;3.67;;;16.20;99.90;;;;;;1984341;71;21063;-80
2021/06/06 08:16:26;;;;;;;7.90;3.62;;;16.20;99.90;;;;;;1973183;73;21079;-80
2021/06/06 08:18:52;;;;;;;9.25;4.22;;;16.10;99.90;;;;;;1973190;73;21031;-86
2021/06/06 08:21:18;;;;;;;9.93;4.45;;;16.10;99.90;;;;;;1973022;73;21055;-80
2021/06/06 08:23:44;;;;;;;9.98;4.37;;;16.10;99.90;;;;;;1973415;73;21122;-79
2021/06/06 08:26:10;;;;;;;10.10;4.12;;;16.10;99.90;;;;;;1973356;73;21088;-79
2021/06/06 08:28:36;;;;;;;8.83;4.55;;;16.20;99.90;;;;;;1973043;73;21141;-79
2021/06/06 08:31:02;;;;;;;11.00;4.53;;;16.20;99.90;;;;;;1973266;73;21108;-77
2021/06/06 08:33:29;;;;;;;13.35;4.67;;;16.30;99.90;;;;;;1973092;73;21097;-78
2021/06/06 08:35:56;;;;;;;11.70;4.62;;;16.30;99.90;;;;;;1973200;73;21063;-77
2021/06/06 08:38:22;;;;;;;13.98;5.40;;;16.30;99.90;;;;;;1972977;73;21066;-77
2021/06/06 08:40:48;;;;;;;9.80;4.70;;;16.30;99.90;;;;;;1973225;73;21080;-77
2021/06/06 08:43:14;;;;;;;13.48;5.28;;;16.30;99.90;;;;;;1973195;73;21081;-77
2021/06/06 08:45:45;;;;;;;11.08;4.60;;;16.40;99.90;;;;;;1973234;73;21128;-78
2021/06/06 08:48:08;;;;;;;8.83;4.37;;;16.30;99.90;;;;;;1973227;71;21092;-76
2021/06/06 08:50:35;;;;;;;8.63;3.98;;;16.30;99.90;;;;;;1973298;73;21182;-79
2021/06/06 08:53:01;;;;;;;10.18;4.67;;;16.40;99.90;;;;;;1973328;73;21228;-80
2021/06/06 08:55:27;;;;;;;8.78;4.58;;;16.30;99.90;;;;;;1973308;73;21088;-78
2021/06/06 08:57:53;;;;;;;12.78;5.05;;;16.30;99.90;;;;;;1973296;73;21146;-79
2021/06/06 09:00:19;;;;;;;12.70;5.10;;;16.30;99.90;;;;;;1973227;73;21557;-82
2021/06/06 09:02:47;;;;;;;9.98;5.33;;;16.40;99.90;;;;;;1973288;73;21452;-77
2021/06/06 09:05:13;;;;;;;13.58;5.17;;;16.40;99.90;;;;;;1973165;71;21131;-76
2021/06/06 09:07:39;;;;;;;12.78;4.97;;;16.40;99.90;;;;;;1973195;73;21153;-76
2021/06/06 09:10:07;;;;;;;10.55;4.95;;;16.40;99.90;;;;;;1973177;73;21459;-76
2021/06/06 09:12:33;;;;;;;12.47;5.70;;;16.50;99.90;;;;;;1973315;73;21228;-75
2021/06/06 09:14:59;;;;;;;11.25;5.35;;;16.40;99.90;;;;;;1973285;73;21072;-76
2021/06/06 09:17:25;;;;;;;12.70;5.28;;;16.30;99.90;;;;;;1973039;73;21067;-76
2021/06/06 09:19:51;;;;;;;11.50;5.67;;;16.40;99.90;;;;;;1973647;73;21162;-77
2021/06/06 09:22:17;;;;;;;13.60;5.45;;;16.50;99.90;;;;;;1973163;73;21028;-75
2021/06/06 09:24:47;;;;;;;10.00;5.37;;;16.50;99.90;;;;;;1973201;73;21136;-76
2021/06/06 09:27:11;;;;;;;12.55;5.87;;;16.50;99.90;;;;;;1973078;71;21149;-78
2021/06/06 09:29:37;;;;;;;9.23;5.17;;;16.50;99.90;;;;;;1973332;73;21084;-75
2021/06/06 09:32:03;;;;;;;11.88;5.67;;;16.50;99.90;;;;;;1974341;73;21131;-75
2021/06/06 09:34:30;;;;;;;9.25;5.10;;;16.50;99.90;;;;;;1973301;73;21092;-76
2021/06/06 09:36:56;;;;;;;16.25;5.47;;;16.50;99.90;;;;;;1973358;73;22954;-76
2021/06/06 09:39:22;;;;;;;17.42;6.00;;;16.50;99.90;;;;;;1973380;73;21068;-74
2021/06/06 09:41:48;;;;;;;12.60;5.83;;;16.50;99.90;;;;;;1973393;73;21084;-74
2021/06/06 09:44:14;;;;;;;14.07;5.62;;;16.50;99.90;;;;;;1973266;73;21075;-74
2021/06/06 09:46:40;;;;;;;14.07;5.87;;;16.50;99.90;;;;;;1973521;73;21087;-76
2021/06/06 09:49:06;;;;;;;17.25;6.00;;;16.40;99.90;;;;;;1976479;72;21075;-74
2021/06/06 09:51:32;;;;;;;17.48;6.15;;;16.50;99.90;;;;;;1974869;72;21471;-74
2021/06/06 09:53:59;;;;;;;13.98;5.87;;;16.60;99.90;;;;;;1973240;73;21488;-74
2021/06/06 09:56:25;;;;;;;12.58;6.20;;;16.70;99.90;;;;;;1973171;73;21132;-74
2021/06/06 09:58:53;;;;;;;11.03;5.58;;;16.80;99.90;;;;;;1973291;73;21084;-74
2021/06/06 10:01:19;;;;;;;14.90;5.87;;;16.90;99.90;;;;;;1973295;73;21138;-74
2021/06/06 10:03:46;;;;;;;12.15;5.85;;;17.00;99.90;;;;;;1973158;73;21091;-74
2021/06/06 10:06:12;;;;;;;10.43;5.47;;;16.90;99.90;;;;;;1973194;73;21084;-74
2021/06/06 10:08:38;;;;;;;11.68;6.03;;;16.90;99.90;;;;;;1973187;73;21059;-75
2021/06/06 10:11:04;;;;;;;14.87;6.12;;;16.90;99.90;;;;;;1973213;73;21059;-76
2021/06/06 10:13:30;;;;;;;12.07;6.45;;;17.10;99.90;;;;;;1973133;73;21055;-76
2021/06/06 10:15:56;;;;;;;11.18;6.10;;;17.00;99.90;;;;;;1973182;73;21024;-75
2021/06/06 10:18:22;;;;;;;16.17;6.75;;;16.80;99.90;;;;;;1973231;73;21096;-76
2021/06/06 10:20:48;;;;;;;16.00;6.87;;;16.80;99.90;;;;;;1973730;73;21130;-75
2021/06/06 10:23:15;;;;;;;18.40;7.45;;;16.70;99.90;;;;;;1974505;73;21060;-75
2021/06/06 10:25:41;;;;;;;15.43;7.55;;;16.70;99.90;;;;;;1973239;73;21024;-75
2021/06/06 10:28:07;;;;;;;13.90;6.95;;;16.60;99.90;;;;;;1973168;73;21218;-75
2021/06/06 10:30:33;;;;;;;15.10;7.85;;;16.70;99.90;;;;;;1973209;73;21130;-74
2021/06/06 10:32:59;;;;;;;18.75;8.70;;;16.80;99.90;;;;;;1973268;73;21132;-75
2021/06/06 10:35:25;;;;;;;15.85;9.58;;;16.80;99.90;;;;;;1973215;73;21083;-74
2021/06/06 10:37:52;;;;;;;19.45;9.00;;;16.90;99.90;;;;;;1973239;73;21125;-76
2021/06/06 10:40:18;;;;;;;21.35;9.95;;;16.80;99.90;;;;;;1973324;73;21063;-76
2021/06/06 10:42:44;;;;;;;20.77;10.00;;;16.80;99.90;;;;;;1973350;73;21132;-75
2021/06/06 10:45:10;;;;;;;27.35;10.90;;;16.90;99.90;;;;;;1973291;73;21137;-73
2021/06/06 10:47:37;;;;;;;17.52;9.60;;;17.10;99.90;;;;;;1973318;73;21096;-72
2021/06/06 10:50:03;;;;;;;19.92;9.40;;;17.20;99.90;;;;;;1973077;73;21113;-72
2021/06/06 10:52:32;;;;;;;23.87;10.45;;;17.30;99.90;;;;;;1973318;73;21142;-76
2021/06/06 10:54:57;;;;;;;21.30;10.60;;;17.30;99.90;;;;;;1972916;72;21511;-74
2021/06/06 10:57:23;;;;;;;22.75;10.35;;;17.20;99.90;;;;;;1973320;73;21176;-74
2021/06/06 10:59:50;;;;;;;22.13;9.83;;;17.20;99.90;;;;;;1973339;73;21070;-74
2021/06/06 11:02:16;;;;;;;24.27;10.63;;;17.20;99.90;;;;;;1973323;73;21072;-75
2021/06/06 11:04:42;;;;;;;21.37;10.18;;;17.10;99.90;;;;;;1973155;73;21067;-75
2021/06/06 11:07:08;;;;;;;22.17;9.78;;;17.20;99.90;;;;;;1973168;73;21104;-74
2021/06/06 11:09:34;;;;;;;26.65;10.63;;;17.00;99.90;;;;;;1973129;73;21125;-74
2021/06/06 11:12:00;;;;;;;22.85;10.95;;;17.00;99.90;;;;;;1973285;73;21060;-74
2021/06/06 11:14:26;;;;;;;20.25;10.53;;;17.10;99.90;;;;;;1973113;73;21559;-74
2021/06/06 11:16:53;;;;;;;22.62;10.98;;;17.20;99.90;;;;;;1973190;73;20996;-74
2021/06/06 11:19:19;;;;;;;25.35;11.38;;;17.20;99.90;;;;;;1973207;73;21063;-74
2021/06/06 11:21:45;;;;;;;28.50;10.55;;;17.10;99.90;;;;;;1973213;73;21124;-74
2021/06/06 11:24:11;;;;;;;20.48;10.32;;;17.10;99.90;;;;;;1973286;73;21186;-74
2021/06/06 11:26:38;;;;;;;22.65;11.08;;;17.20;99.90;;;;;;1973157;73;21024;-74
2021/06/06 11:29:04;;;;;;;25.45;11.68;;;17.20;99.90;;;;;;1973231;73;21110;-75
2021/06/06 11:31:30;;;;;;;27.90;11.85;;;17.20;99.90;;;;;;1973179;73;21092;-74
2021/06/06 11:33:56;;;;;;;23.90;11.15;;;17.30;99.90;;;;;;1973246;73;21521;-75
2021/06/06 11:36:22;;;;;;;27.73;11.63;;;17.20;99.90;;;;;;1973371;73;21598;-75
2021/06/06 11:38:50;;;;;;;30.97;14.23;;;17.20;99.90;;;;;;1973245;73;21544;-75
2021/06/06 11:41:16;;;;;;;29.57;13.25;;;17.20;99.90;;;;;;1973121;72;21150;-75
2021/06/06 11:43:42;;;;;;;27.30;12.82;;;17.30;99.90;;;;;;1973181;73;21059;-75
2021/06/06 11:46:08;;;;;;;34.03;13.43;;;17.40;99.90;;;;;;1973134;73;21055;-75
2021/06/06 11:48:36;;;;;;;25.32;12.45;;;17.50;99.90;;;;;;1973119;73;21058;-75
2021/06/06 11:51:02;;;;;;;30.15;13.72;;;17.60;99.90;;;;;;1973231;72;21099;-73
2021/06/06 11:53:29;;;;;;;32.08;13.22;;;17.60;99.90;;;;;;1973617;73;21116;-75
2021/06/06 11:55:55;;;;;;;32.80;15.32;;;17.70;99.90;;;;;;1973519;73;21072;-76
2021/06/06 11:58:21;;;;;;;38.17;14.47;;;17.60;99.90;;;;;;1973098;73;21032;-75
2021/06/06 12:00:47;;;;;;;33.85;15.43;;;17.50;99.90;;;;;;1973224;73;21142;-75
2021/06/06 12:03:14;;;;;;;33.15;13.68;;;17.60;99.90;;;;;;1973009;73;21090;-79
2021/06/06 12:05:40;;;;;;;30.50;14.43;;;17.50;99.90;;;;;;1973297;73;21056;-78
2021/06/06 12:08:06;;;;;;;32.65;14.43;;;17.50;99.90;;;;;;1985380;71;21032;-79
2021/06/06 12:10:32;;;;;;;31.00;14.05;;;17.60;99.90;;;;;;1977544;71;21088;-78
2021/06/06 12:12:58;;;;;;;31.57;14.33;;;17.60;99.90;;;;;;1974579;71;21083;-78
2021/06/06 12:15:24;;;;;;;32.88;14.73;;;17.60;99.90;;;;;;1968332;72;21195;-78
2021/06/06 12:17:50;;;;;;;36.13;15.58;;;17.60;99.90;;;;;;1972948;73;21027;-78
2021/06/06 12:20:17;;;;;;;34.53;15.23;;;17.60;99.90;;;;;;1973178;73;21612;-78
2021/06/06 12:22:43;;;;;;;35.85;15.05;;;17.60;99.90;;;;;;1971102;71;21615;-78
2021/06/06 12:25:09;;;;;;;31.48;14.40;;;17.50;99.90;;;;;;1973049;73;21475;-78
2021/06/06 12:27:35;;;;;;;35.03;14.53;;;17.50;99.90;;;;;;1973241;73;21153;-78
2021/06/06 12:30:02;;;;;;;33.23;14.25;;;17.60;99.90;;;;;;1973178;73;21128;-78
2021/06/06 12:32:28;;;;;;;27.15;13.83;;;17.70;99.90;;;;;;1973232;73;21121;-79
2021/06/06 12:34:54;;;;;;;32.55;13.22;;;17.70;99.90;;;;;;1973217;73;21115;-78
2021/06/06 12:37:23;;;;;;;25.40;12.88;;;17.70;99.90;;;;;;1973289;73;21157;-77